createdAt,value
2023-08-16T00:00:57.736Z,25.00
2023-08-16T00:03:26.553Z,25.20
2023-08-16T00:05:54.835Z,24.80
2023-08-16T00:08:25.179Z,24.80
2023-08-16T00:10:53.912Z,25.00
2023-08-16T00:13:22.080Z,24.90
2023-08-16T00:15:51.517Z,24.90
2023-08-16T00:18:19.708Z,25.50
2023-08-16T00:20:47.785Z,25.90
2023-08-16T00:23:15.867Z,25.30
2023-08-16T00:25:43.931Z,25.80
2023-08-16T00:28:12.037Z,25.90
2023-08-16T00:30:40.126Z,26.10
2023-08-16T00:33:09.716Z,26.00
2023-08-16T00:35:37.883Z,25.60
2023-08-16T00:38:06.244Z,25.40
2023-08-16T00:40:35.218Z,25.50
2023-08-16T00:43:04.348Z,25.80
2023-08-16T00:45:32.471Z,25.60
2023-08-16T00:48:00.921Z,25.60
2023-08-16T00:50:30.499Z,25.40
2023-08-16T00:52:58.554Z,25.40
2023-08-16T00:55:26.640Z,25.10
2023-08-16T00:57:55.524Z,24.90
2023-08-16T01:00:23.891Z,24.60
2023-08-16T01:02:52.418Z,24.40
2023-08-16T01:05:20.638Z,24.50
2023-08-16T01:07:50.051Z,24.30
2023-08-16T01:10:18.325Z,23.90
2023-08-16T01:12:49.513Z,24.20
2023-08-16T01:15:20.973Z,24.40
2023-08-16T01:17:49.120Z,25.00
2023-08-16T01:20:17.211Z,25.40
2023-08-16T01:23:00.439Z,25.70
2023-08-16T01:25:36.373Z,25.10
2023-08-16T01:28:06.404Z,25.30
2023-08-16T01:30:34.689Z,25.40
2023-08-16T01:33:09.304Z,25.80
2023-08-16T01:35:37.601Z,25.00
2023-08-16T01:38:06.071Z,25.20
2023-08-16T01:40:39.674Z,25.20
2023-08-16T01:43:11.948Z,25.70
2023-08-16T01:45:40.453Z,25.80
2023-08-16T01:48:08.935Z,25.20
2023-08-16T01:50:37.219Z,25.50
2023-08-16T01:53:05.467Z,25.50
2023-08-16T01:55:33.534Z,25.40
2023-08-16T01:58:01.615Z,25.40
2023-08-16T02:00:31.192Z,25.50
2023-08-16T02:02:59.357Z,25.80
2023-08-16T02:05:27.506Z,25.10
2023-08-16T02:07:55.559Z,25.20
2023-08-16T02:10:23.663Z,25.30
2023-08-16T02:12:51.729Z,25.70
2023-08-16T02:15:19.976Z,25.80
2023-08-16T02:17:49.496Z,25.10
2023-08-16T02:20:17.820Z,25.10
2023-08-16T02:22:45.884Z,25.50
2023-08-16T02:25:13.980Z,24.90
2023-08-16T02:27:42.339Z,24.70
2023-08-16T02:30:10.797Z,25.20
2023-08-16T02:32:39.094Z,25.30
2023-08-16T02:35:09.843Z,25.30
2023-08-16T02:37:38.050Z,25.20
2023-08-16T02:40:07.300Z,25.40
2023-08-16T02:42:35.352Z,24.90
2023-08-16T02:45:03.439Z,25.00
2023-08-16T02:47:31.570Z,25.10
2023-08-16T02:49:59.675Z,25.30
2023-08-16T02:52:29.311Z,25.50
2023-08-16T02:54:57.483Z,25.50
2023-08-16T02:57:26.008Z,25.60
2023-08-16T02:59:54.390Z,25.10
2023-08-16T03:02:23.048Z,25.20
2023-08-16T03:04:51.122Z,24.60
2023-08-16T03:07:19.259Z,24.50
2023-08-16T03:09:48.743Z,24.80
2023-08-16T03:12:16.872Z,24.80
2023-08-16T03:14:45.021Z,24.70
2023-08-16T03:17:13.155Z,24.50
2023-08-16T03:19:41.336Z,24.30
2023-08-16T03:22:09.402Z,24.30
2023-08-16T03:24:37.539Z,24.20
2023-08-16T03:27:07.147Z,24.10
2023-08-16T03:29:35.217Z,24.20
2023-08-16T03:32:03.277Z,24.60
2023-08-16T03:34:33.150Z,24.80
2023-08-16T03:37:01.240Z,24.60
2023-08-16T03:39:29.445Z,24.50
2023-08-16T03:41:57.525Z,24.80
2023-08-16T03:44:27.122Z,24.70
2023-08-16T03:46:55.247Z,24.60
2023-08-16T03:49:23.367Z,24.90
2023-08-16T03:51:51.750Z,24.90
2023-08-16T03:54:19.959Z,24.50
2023-08-16T03:56:48.020Z,24.00
2023-08-16T03:59:16.171Z,24.30
2023-08-16T04:01:45.691Z,24.50
2023-08-16T04:04:13.757Z,24.20
2023-08-16T04:06:41.883Z,24.10
2023-08-16T04:09:11.037Z,24.30
2023-08-16T04:11:39.157Z,24.20
2023-08-16T04:14:07.199Z,24.30
2023-08-16T04:16:35.344Z,24.30
2023-08-16T04:19:04.925Z,23.90
2023-08-16T04:21:33.166Z,24.10
2023-08-16T04:24:01.446Z,24.00
2023-08-16T04:26:29.786Z,23.60
2023-08-16T04:28:57.910Z,23.20
2023-08-16T04:31:26.022Z,23.30
2023-08-16T04:33:54.100Z,23.50
2023-08-16T04:36:23.543Z,23.80
2023-08-16T04:38:51.739Z,24.30
2023-08-16T04:41:19.927Z,24.20
2023-08-16T04:43:48.529Z,24.30
2023-08-16T04:46:17.163Z,24.00
2023-08-16T04:48:45.478Z,24.00
2023-08-16T04:51:13.582Z,24.60
2023-08-16T04:53:43.048Z,24.80
2023-08-16T04:56:11.182Z,24.80
2023-08-16T04:58:39.377Z,24.80
2023-08-16T05:01:07.485Z,24.80
2023-08-16T05:03:35.925Z,24.70
2023-08-16T05:06:04.818Z,24.30
2023-08-16T05:08:33.043Z,24.80
2023-08-16T05:11:02.548Z,24.40
2023-08-16T05:13:30.666Z,24.60
2023-08-16T05:15:59.139Z,24.70
2023-08-16T05:18:27.337Z,24.90
2023-08-16T05:20:57.719Z,24.90
2023-08-16T05:23:25.878Z,25.00
2023-08-16T05:25:54.008Z,24.70
2023-08-16T05:28:23.743Z,25.00
2023-08-16T05:30:51.881Z,25.00
2023-08-16T05:33:20.019Z,25.00
2023-08-16T05:35:48.261Z,25.10
2023-08-16T05:38:19.280Z,25.30
2023-08-16T05:40:47.435Z,25.20
2023-08-16T05:43:15.586Z,25.10
2023-08-16T05:45:45.033Z,24.90
2023-08-16T05:48:13.276Z,24.80
2023-08-16T05:50:42.658Z,25.00
2023-08-16T05:53:10.756Z,25.30
2023-08-16T05:55:39.048Z,25.10
2023-08-16T05:58:07.138Z,25.30
2023-08-16T06:00:35.351Z,25.60
2023-08-16T06:03:05.458Z,25.70
2023-08-16T06:05:34.036Z,25.80
2023-08-16T06:08:02.205Z,25.80
2023-08-16T06:10:30.413Z,25.80
2023-08-16T06:12:58.671Z,25.80
2023-08-16T06:15:26.745Z,25.90
2023-08-16T06:17:54.981Z,26.00
2023-08-16T06:20:24.462Z,25.90
2023-08-16T06:22:52.964Z,25.80
2023-08-16T06:25:21.194Z,26.40
2023-08-16T06:27:49.948Z,26.80
2023-08-16T06:30:18.073Z,26.20
2023-08-16T06:32:46.922Z,26.30
2023-08-16T06:35:15.108Z,26.40
2023-08-16T06:37:47.423Z,26.50
2023-08-16T06:40:15.572Z,26.40
2023-08-16T06:42:43.633Z,26.10
2023-08-16T06:45:11.916Z,26.30
2023-08-16T06:47:40.129Z,26.30
2023-08-16T06:50:09.141Z,26.10
2023-08-16T06:52:38.077Z,26.60
2023-08-16T06:55:08.578Z,26.80
2023-08-16T06:57:36.936Z,27.10
2023-08-16T07:00:07.334Z,27.00
2023-08-16T07:02:35.612Z,27.20
2023-08-16T07:05:04.571Z,27.40
2023-08-16T07:07:34.871Z,27.70
2023-08-16T07:10:03.184Z,27.60
2023-08-16T07:12:32.713Z,27.00
2023-08-16T07:15:01.263Z,27.30
2023-08-16T07:17:30.358Z,27.40
2023-08-16T07:19:58.766Z,27.40
2023-08-16T07:22:28.490Z,27.80
2023-08-16T07:24:56.736Z,27.50
2023-08-16T07:27:25.621Z,27.60
2023-08-16T07:29:55.150Z,27.80
2023-08-16T07:32:23.550Z,28.30
2023-08-16T07:34:51.954Z,28.00
2023-08-16T07:37:20.613Z,28.30
2023-08-16T07:39:48.844Z,28.10
2023-08-16T07:42:20.056Z,27.80
2023-08-16T07:44:48.278Z,27.70
2023-08-16T07:47:17.941Z,28.30
2023-08-16T07:49:46.069Z,28.30
2023-08-16T07:52:14.448Z,28.30
2023-08-16T07:54:42.981Z,28.20
2023-08-16T07:57:11.253Z,28.50
2023-08-16T07:59:39.439Z,27.80
2023-08-16T08:02:08.004Z,28.50
2023-08-16T08:04:37.746Z,28.30
2023-08-16T08:07:06.021Z,28.50
2023-08-16T08:09:34.401Z,28.80
2023-08-16T08:12:02.777Z,29.20
2023-08-16T08:14:31.214Z,29.00
2023-08-16T08:16:59.326Z,29.20
2023-08-16T08:19:27.440Z,29.20
2023-08-16T08:21:57.363Z,28.80
2023-08-16T08:24:25.532Z,28.80
2023-08-16T08:26:53.755Z,28.80
2023-08-16T08:29:22.023Z,29.10
2023-08-16T08:31:50.495Z,29.00
2023-08-16T08:34:19.060Z,28.80
2023-08-16T08:36:47.213Z,29.50
2023-08-16T08:39:20.207Z,29.70
2023-08-16T08:41:49.061Z,29.20
2023-08-16T08:44:18.162Z,29.10
2023-08-16T08:46:47.744Z,28.80
2023-08-16T08:49:16.524Z,28.80
2023-08-16T08:51:44.783Z,29.10
2023-08-16T08:54:13.346Z,29.30
2023-08-16T08:56:42.800Z,29.30
2023-08-16T08:59:15.062Z,29.40
2023-08-16T09:01:44.851Z,29.90
2023-08-16T09:04:13.040Z,30.10
2023-08-16T09:06:41.146Z,30.40
2023-08-16T09:09:09.702Z,30.90
2023-08-16T09:11:37.800Z,30.40
2023-08-16T09:14:07.272Z,30.20
2023-08-16T09:16:35.330Z,30.20
2023-08-16T09:19:03.492Z,29.60
2023-08-16T09:21:32.277Z,30.50
2023-08-16T09:24:00.702Z,31.10
2023-08-16T09:26:29.388Z,31.10
2023-08-16T09:29:01.919Z,31.60
2023-08-16T09:31:32.169Z,31.70
2023-08-16T09:34:00.709Z,31.80
2023-08-16T09:36:30.241Z,31.80
2023-08-16T09:39:02.317Z,31.60
2023-08-16T09:41:31.705Z,31.30
2023-08-16T09:44:05.388Z,31.40
2023-08-16T09:46:35.041Z,31.50
2023-08-16T09:54:13.277Z,31.70
2023-08-16T09:57:29.059Z,31.90
2023-08-16T10:09:37.169Z,32.30
2023-08-16T10:12:05.598Z,32.30
2023-08-16T10:14:33.718Z,31.90
2023-08-16T10:17:03.705Z,32.10
2023-08-16T10:19:32.751Z,32.20
2023-08-16T10:22:01.104Z,32.70
2023-08-16T10:24:33.022Z,32.80
2023-08-16T10:27:01.762Z,32.80
2023-08-16T10:29:29.860Z,32.60
2023-08-16T10:31:58.253Z,32.50
2023-08-16T10:34:27.799Z,32.00
2023-08-16T10:36:55.934Z,32.50
2023-08-16T10:39:24.471Z,32.40
2023-08-16T10:41:52.792Z,32.30
2023-08-16T10:44:24.265Z,32.70
2023-08-16T10:46:52.559Z,32.10
2023-08-16T10:49:20.860Z,33.30
2023-08-16T10:51:52.251Z,33.60
2023-08-16T10:54:20.591Z,32.90
2023-08-16T10:56:49.862Z,33.80
2023-08-16T10:59:19.002Z,34.10
2023-08-16T11:01:47.788Z,34.10
2023-08-16T11:04:15.915Z,33.80
2023-08-16T11:06:51.783Z,34.20
2023-08-16T11:09:32.205Z,34.20
2023-08-16T11:12:03.656Z,33.90
2023-08-16T11:14:32.255Z,33.80
2023-08-16T11:17:00.471Z,34.30
2023-08-16T11:19:28.894Z,34.20
2023-08-16T11:21:58.698Z,34.20
2023-08-16T11:24:26.824Z,33.90
2023-08-16T11:26:56.513Z,34.90
2023-08-16T11:29:24.808Z,34.90
2023-08-16T11:31:57.935Z,35.00
2023-08-16T11:34:26.212Z,34.60
2023-08-16T11:36:54.321Z,34.40
2023-08-16T11:39:23.749Z,34.50
2023-08-16T11:41:51.873Z,34.20
2023-08-16T11:44:21.625Z,34.60
2023-08-16T11:46:50.692Z,34.00
2023-08-16T11:49:23.055Z,34.20
2023-08-16T11:51:52.050Z,34.70
2023-08-16T11:54:24.190Z,34.90
2023-08-16T11:56:52.684Z,34.80
2023-08-16T11:59:30.165Z,35.20
2023-08-16T12:01:58.599Z,35.20
2023-08-16T12:04:26.838Z,35.40
2023-08-16T12:06:55.545Z,35.30
2023-08-16T12:09:23.685Z,35.50
2023-08-16T12:11:52.564Z,35.60
2023-08-16T12:14:20.767Z,35.30
2023-08-16T12:16:50.628Z,35.60
2023-08-16T12:19:22.021Z,35.60
2023-08-16T12:21:51.410Z,36.00
2023-08-16T12:24:19.605Z,36.20
2023-08-16T12:26:47.830Z,36.00
2023-08-16T12:29:15.966Z,35.20
2023-08-16T12:31:44.489Z,36.30
2023-08-16T12:34:14.399Z,35.70
2023-08-16T12:36:42.592Z,35.30
2023-08-16T12:39:10.996Z,35.80
2023-08-16T12:41:39.045Z,35.70
2023-08-16T12:44:07.749Z,35.40
2023-08-16T12:46:35.810Z,35.90
2023-08-16T12:49:03.990Z,35.30
2023-08-16T12:51:33.619Z,35.70
2023-08-16T12:54:01.746Z,34.80
2023-08-16T12:56:29.839Z,35.60
2023-08-16T12:58:57.948Z,34.50
2023-08-16T13:01:41.661Z,35.90
2023-08-16T13:04:13.308Z,36.10
2023-08-16T13:09:26.179Z,36.30
2023-08-16T13:11:55.658Z,37.30
2023-08-16T13:17:05.126Z,36.70
2023-08-16T13:22:17.093Z,36.60
2023-08-16T13:24:58.022Z,37.70
2023-08-16T13:27:41.024Z,36.90
2023-08-16T13:30:44.042Z,37.70
2023-08-16T13:35:31.905Z,36.30
2023-08-16T13:38:17.252Z,36.50
2023-08-16T13:40:53.479Z,36.70
2023-08-16T13:43:25.866Z,37.00
2023-08-16T13:45:54.661Z,37.00
2023-08-16T13:48:22.794Z,36.40
2023-08-16T13:50:50.978Z,37.30
2023-08-16T13:53:20.615Z,36.40
2023-08-16T13:55:49.094Z,36.40
2023-08-16T13:58:17.420Z,35.60
2023-08-16T14:00:45.810Z,36.00
2023-08-16T14:03:13.999Z,35.90
2023-08-16T14:05:42.142Z,36.00
2023-08-16T14:08:11.077Z,37.00
2023-08-16T14:10:40.726Z,36.80
2023-08-16T14:13:13.498Z,36.70
2023-08-16T14:15:41.619Z,36.60
2023-08-16T14:18:09.789Z,36.80
2023-08-16T14:20:37.902Z,35.30
2023-08-16T14:23:06.128Z,35.90
2023-08-16T14:25:34.443Z,36.60
2023-08-16T14:28:03.999Z,36.50
2023-08-16T14:30:33.267Z,36.80
2023-08-16T14:33:03.145Z,36.50
2023-08-16T14:35:31.400Z,36.80
2023-08-16T14:38:00.436Z,37.40
2023-08-16T14:40:31.355Z,37.20
2023-08-16T14:42:59.876Z,37.30
2023-08-16T14:45:29.366Z,37.80
2023-08-16T14:47:57.549Z,35.40
2023-08-16T14:50:25.722Z,35.40
2023-08-16T14:52:53.866Z,36.90
2023-08-16T14:55:23.309Z,36.40
2023-08-16T14:57:51.590Z,35.10
2023-08-16T15:00:21.049Z,35.40
2023-08-16T15:02:50.785Z,34.40
2023-08-16T15:05:19.048Z,34.70
2023-08-16T15:07:47.235Z,34.20
2023-08-16T15:10:15.493Z,35.00
2023-08-16T15:12:44.266Z,36.10
2023-08-16T15:15:13.437Z,35.00
2023-08-16T15:17:41.710Z,34.10
2023-08-16T15:20:12.459Z,33.70
2023-08-16T15:22:41.183Z,33.80
2023-08-16T15:25:10.635Z,33.80
2023-08-16T15:27:41.316Z,33.50
2023-08-16T15:30:11.818Z,33.60
2023-08-16T15:32:44.393Z,33.90
2023-08-16T15:35:13.915Z,33.40
2023-08-16T15:37:42.730Z,34.50
2023-08-16T15:40:11.651Z,34.00
2023-08-16T15:42:39.701Z,33.50
2023-08-16T15:45:08.803Z,34.40
2023-08-16T15:47:36.861Z,35.20
2023-08-16T15:50:05.171Z,35.40
2023-08-16T15:52:34.653Z,34.90
2023-08-16T15:55:04.098Z,34.80
2023-08-16T15:57:33.482Z,34.70
2023-08-16T16:00:02.618Z,34.70
2023-08-16T16:02:30.845Z,34.50
2023-08-16T16:04:58.953Z,33.60
2023-08-16T16:07:27.541Z,31.60
2023-08-16T16:09:59.464Z,31.10
2023-08-16T16:12:27.589Z,29.80
2023-08-16T16:14:55.964Z,29.50
2023-08-16T16:17:26.175Z,29.80
2023-08-16T16:19:57.140Z,30.10
2023-08-16T16:22:27.826Z,30.10
2023-08-16T16:24:59.756Z,30.50
2023-08-16T16:27:28.154Z,29.40
2023-08-16T16:29:56.608Z,29.30
2023-08-16T16:32:24.983Z,30.30
2023-08-16T16:34:53.387Z,30.90
2023-08-16T16:37:21.556Z,31.40
2023-08-16T16:39:50.883Z,31.50
2023-08-16T16:42:22.909Z,31.60
2023-08-16T16:44:52.272Z,31.50
2023-08-16T16:47:20.719Z,31.70
2023-08-16T16:49:49.549Z,31.90
2023-08-16T16:52:19.760Z,31.80
2023-08-16T16:54:47.931Z,31.90
2023-08-16T16:57:16.071Z,31.70
2023-08-16T16:59:45.773Z,31.60
2023-08-16T17:02:13.925Z,30.80
2023-08-16T17:04:42.093Z,30.90
2023-08-16T17:07:10.236Z,29.50
2023-08-16T17:09:38.305Z,28.90
2023-08-16T17:12:07.770Z,29.50
2023-08-16T17:14:38.177Z,30.30
2023-08-16T17:17:07.908Z,30.40
2023-08-16T17:19:40.720Z,30.00
2023-08-16T17:22:09.376Z,28.60
2023-08-16T17:24:37.624Z,30.10
2023-08-16T17:27:06.478Z,29.90
2023-08-16T17:29:34.561Z,30.30
2023-08-16T17:32:02.780Z,30.40
2023-08-16T17:34:32.592Z,30.50
2023-08-16T17:37:00.680Z,29.40
2023-08-16T17:39:28.757Z,29.70
2023-08-16T17:41:56.867Z,30.20
2023-08-16T17:44:24.946Z,30.40
2023-08-16T17:46:53.190Z,30.40
2023-08-16T17:49:21.610Z,30.60
2023-08-16T17:51:51.094Z,30.60
2023-08-16T17:54:19.367Z,30.40
2023-08-16T17:56:49.227Z,30.20
2023-08-16T17:59:17.861Z,30.40
2023-08-16T18:01:46.008Z,30.50
2023-08-16T18:04:14.152Z,29.70
2023-08-16T18:06:42.326Z,29.60
2023-08-16T18:09:11.910Z,29.70
2023-08-16T18:11:39.951Z,30.10
2023-08-16T18:14:08.131Z,30.30
2023-08-16T18:16:36.598Z,30.40
2023-08-16T18:19:05.074Z,30.20
2023-08-16T18:21:33.170Z,30.00
2023-08-16T18:24:01.356Z,29.50
2023-08-16T18:26:30.913Z,29.40
2023-08-16T18:28:59.050Z,29.50
2023-08-16T18:31:27.248Z,29.70
2023-08-16T18:33:55.315Z,29.80
2023-08-16T18:36:23.447Z,29.90
2023-08-16T18:38:51.507Z,29.40
2023-08-16T18:41:19.625Z,29.50
2023-08-16T18:43:49.054Z,29.60
2023-08-16T18:46:17.219Z,30.00
2023-08-16T18:48:45.970Z,30.00
2023-08-16T18:51:14.262Z,30.00
2023-08-16T18:53:42.520Z,29.70
2023-08-16T18:56:10.602Z,29.80
2023-08-16T18:58:38.783Z,29.80
2023-08-16T19:01:08.744Z,29.30
2023-08-16T19:03:36.893Z,28.80
2023-08-16T19:06:05.273Z,29.20
2023-08-16T19:08:33.359Z,29.40
2023-08-16T19:11:01.593Z,29.50
2023-08-16T19:13:29.710Z,29.30
2023-08-16T19:15:58.649Z,28.90
2023-08-16T19:18:28.282Z,28.90
2023-08-16T19:20:56.985Z,29.20
2023-08-16T19:23:25.370Z,28.80
2023-08-16T19:25:54.765Z,28.80
2023-08-16T19:28:23.709Z,28.90
2023-08-16T19:30:55.642Z,29.30
2023-08-16T19:33:23.984Z,28.80
2023-08-16T19:35:54.690Z,28.60
2023-08-16T19:38:22.935Z,28.50
2023-08-16T19:40:53.121Z,29.10
2023-08-16T19:43:21.331Z,29.30
2023-08-16T19:45:50.719Z,29.30
2023-08-16T19:48:18.950Z,29.30
2023-08-16T19:50:47.434Z,29.10
2023-08-16T19:53:17.271Z,28.10
2023-08-16T19:55:47.153Z,28.60
2023-08-16T19:58:16.554Z,29.00
2023-08-16T20:00:44.825Z,29.30
2023-08-16T20:03:13.049Z,29.40
2023-08-16T20:05:41.245Z,29.50
2023-08-16T20:08:09.495Z,29.30
2023-08-16T20:10:40.078Z,29.00
2023-08-16T20:13:08.492Z,29.20
2023-08-16T20:15:36.878Z,29.10
2023-08-16T20:18:05.686Z,28.40
2023-08-16T20:20:33.825Z,28.40
2023-08-16T20:23:01.898Z,27.30
2023-08-16T20:25:29.928Z,27.40
2023-08-16T20:27:59.382Z,27.60
2023-08-16T20:30:27.649Z,27.10
2023-08-16T20:32:56.066Z,26.30
2023-08-16T20:35:24.561Z,26.70
2023-08-16T20:37:53.052Z,27.20
2023-08-16T20:40:21.219Z,26.70
2023-08-16T20:42:50.972Z,26.80
2023-08-16T20:45:20.481Z,26.30
2023-08-16T20:47:48.615Z,26.50
2023-08-16T20:50:16.885Z,26.80
2023-08-16T20:52:45.113Z,26.30
2023-08-16T20:55:13.213Z,26.30
2023-08-16T20:57:41.394Z,26.50
2023-08-16T21:00:10.960Z,26.60
2023-08-16T21:02:40.479Z,27.00
2023-08-16T21:05:09.048Z,26.60
2023-08-16T21:07:37.108Z,27.10
2023-08-16T21:10:05.761Z,25.70
2023-08-16T21:12:33.863Z,26.60
2023-08-16T21:15:01.999Z,27.20
2023-08-16T21:17:30.092Z,26.80
2023-08-16T21:19:59.577Z,27.10
2023-08-16T21:22:27.613Z,27.30
2023-08-16T21:24:55.877Z,27.20
2023-08-16T21:27:24.226Z,27.30
2023-08-16T21:29:52.521Z,27.30
2023-08-16T21:32:20.801Z,27.00
2023-08-16T21:34:48.923Z,26.80
2023-08-16T21:37:18.386Z,27.10
2023-08-16T21:39:49.500Z,27.00
2023-08-16T21:42:17.590Z,26.80
2023-08-16T21:44:45.652Z,26.50
2023-08-16T21:47:13.728Z,26.30
2023-08-16T21:49:41.776Z,26.30
2023-08-16T21:52:09.857Z,25.70
2023-08-16T21:54:39.320Z,26.50
2023-08-16T21:57:07.436Z,26.40
2023-08-16T21:59:35.526Z,26.50
2023-08-16T22:02:03.645Z,26.50
2023-08-16T22:04:31.779Z,25.90
2023-08-16T22:06:59.904Z,25.80
2023-08-16T22:09:27.982Z,25.50
2023-08-16T22:11:57.881Z,25.30
2023-08-16T22:14:25.980Z,25.60
2023-08-16T22:16:54.070Z,25.80
2023-08-16T22:19:22.262Z,26.10
2023-08-16T22:21:50.322Z,26.70
2023-08-16T22:24:18.493Z,26.30
2023-08-16T22:26:46.562Z,26.30
2023-08-16T22:29:16.085Z,26.00
2023-08-16T22:31:45.272Z,25.40
2023-08-16T22:34:13.371Z,25.80
2023-08-16T22:36:42.152Z,25.50
2023-08-16T22:39:10.274Z,25.70
2023-08-16T22:41:38.337Z,26.10
2023-08-16T22:44:06.849Z,24.60
2023-08-16T22:46:36.409Z,25.30
2023-08-16T22:49:05.188Z,24.80
2023-08-16T22:51:34.970Z,25.20
2023-08-16T22:54:03.034Z,25.50
2023-08-16T22:56:31.111Z,25.60
2023-08-16T22:58:59.167Z,25.40
2023-08-16T23:01:28.100Z,25.70
2023-08-16T23:03:57.541Z,25.80
2023-08-16T23:06:25.700Z,26.20
2023-08-16T23:08:53.800Z,25.80
2023-08-16T23:11:21.901Z,25.40
2023-08-16T23:13:49.976Z,25.30
2023-08-16T23:16:18.093Z,25.90
2023-08-16T23:18:47.684Z,26.00
2023-08-16T23:21:17.137Z,25.50
2023-08-16T23:23:45.293Z,25.50
2023-08-16T23:26:13.794Z,25.90
2023-08-16T23:28:41.913Z,26.20
2023-08-16T23:31:10.011Z,26.30
2023-08-16T23:33:38.077Z,25.80
2023-08-16T23:36:06.711Z,25.80
2023-08-16T23:38:36.190Z,25.50
2023-08-16T23:41:04.756Z,25.50
2023-08-16T23:43:32.850Z,25.40
2023-08-16T23:46:01.818Z,25.90
2023-08-16T23:48:29.913Z,26.20
2023-08-16T23:50:57.961Z,25.80
2023-08-16T23:53:26.038Z,25.90
2023-08-16T23:55:55.528Z,25.80
2023-08-16T23:58:23.616Z,25.40
